sensor_id;sensor_type;location;lat;lon;timestamp;P1;durP1;ratioP1;P2;durP2;ratioP2
73550;SDS011;61816;53.582;10.096;2024-01-30T00:01:15;22.55;;;10.57;;
73550;SDS011;61816;53.582;10.096;2024-01-30T00:03:41;16.85;;;9.60;;
73550;SDS011;61816;53.582;10.096;2024-01-30T00:06:07;20.95;;;10.27;;
73550;SDS011;61816;53.582;10.096;2024-01-30T00:08:33;22.33;;;9.95;;
73550;SDS011;61816;53.582;10.096;2024-01-30T00:10:58;20.98;;;8.32;;
73550;SDS011;61816;53.582;10.096;2024-01-30T00:13:24;19.38;;;8.95;;
73550;SDS011;61816;53.582;10.096;2024-01-30T00:15:49;22.95;;;9.90;;
73550;SDS011;61816;53.582;10.096;2024-01-30T00:18:14;19.13;;;9.45;;
73550;SDS011;61816;53.582;10.096;2024-01-30T00:20:40;17.88;;;9.15;;
73550;SDS011;61816;53.582;10.096;2024-01-30T00:23:05;17.10;;;9.52;;
73550;SDS011;61816;53.582;10.096;2024-01-30T00:25:31;20.08;;;8.77;;
73550;SDS011;61816;53.582;10.096;2024-01-30T00:27:58;21.90;;;9.85;;
73550;SDS011;61816;53.582;10.096;2024-01-30T00:30:23;18.27;;;10.00;;
73550;SDS011;61816;53.582;10.096;2024-01-30T00:32:49;17.75;;;9.85;;
73550;SDS011;61816;53.582;10.096;2024-01-30T00:35:14;17.92;;;10.02;;
73550;SDS011;61816;53.582;10.096;2024-01-30T00:37:39;18.02;;;9.40;;
73550;SDS011;61816;53.582;10.096;2024-01-30T00:40:05;19.92;;;9.55;;
73550;SDS011;61816;53.582;10.096;2024-01-30T00:42:31;23.55;;;10.20;;
73550;SDS011;61816;53.582;10.096;2024-01-30T00:44:56;15.85;;;9.25;;
73550;SDS011;61816;53.582;10.096;2024-01-30T00:47:21;16.67;;;9.10;;
73550;SDS011;61816;53.582;10.096;2024-01-30T00:49:47;17.50;;;9.55;;
73550;SDS011;61816;53.582;10.096;2024-01-30T00:52:12;16.60;;;9.38;;
73550;SDS011;61816;53.582;10.096;2024-01-30T00:54:40;20.70;;;9.88;;
73550;SDS011;61816;53.582;10.096;2024-01-30T00:57:06;19.35;;;9.18;;
73550;SDS011;61816;53.582;10.096;2024-01-30T00:59:32;16.98;;;9.38;;
73550;SDS011;61816;53.582;10.096;2024-01-30T01:01:57;18.27;;;9.13;;
73550;SDS011;61816;53.582;10.096;2024-01-30T01:04:22;22.50;;;9.55;;
73550;SDS011;61816;53.582;10.096;2024-01-30T01:06:51;15.77;;;8.68;;
73550;SDS011;61816;53.582;10.096;2024-01-30T01:09:16;20.13;;;8.80;;
73550;SDS011;61816;53.582;10.096;2024-01-30T01:11:43;25.05;;;9.27;;
73550;SDS011;61816;53.582;10.096;2024-01-30T01:14:09;19.60;;;8.75;;
73550;SDS011;61816;53.582;10.096;2024-01-30T01:16:34;15.35;;;8.02;;
73550;SDS011;61816;53.582;10.096;2024-01-30T01:19:00;15.68;;;8.65;;
73550;SDS011;61816;53.582;10.096;2024-01-30T01:21:25;19.38;;;8.20;;
73550;SDS011;61816;53.582;10.096;2024-01-30T01:23:53;16.88;;;8.27;;
73550;SDS011;61816;53.582;10.096;2024-01-30T01:26:19;17.25;;;8.80;;
73550;SDS011;61816;53.582;10.096;2024-01-30T01:28:44;19.20;;;9.15;;
73550;SDS011;61816;53.582;10.096;2024-01-30T01:31:09;19.35;;;8.85;;
73550;SDS011;61816;53.582;10.096;2024-01-30T01:33:35;20.85;;;9.38;;
73550;SDS011;61816;53.582;10.096;2024-01-30T01:36:02;16.30;;;8.25;;
73550;SDS011;61816;53.582;10.096;2024-01-30T01:38:27;22.50;;;9.48;;
73550;SDS011;61816;53.582;10.096;2024-01-30T01:40:56;17.67;;;9.02;;
73550;SDS011;61816;53.582;10.096;2024-01-30T01:43:21;17.42;;;9.20;;
73550;SDS011;61816;53.582;10.096;2024-01-30T01:45:46;25.40;;;9.95;;
73550;SDS011;61816;53.582;10.096;2024-01-30T01:48:16;17.50;;;8.73;;
73550;SDS011;61816;53.582;10.096;2024-01-30T01:50:41;19.60;;;8.63;;
73550;SDS011;61816;53.582;10.096;2024-01-30T01:53:07;15.30;;;8.70;;
73550;SDS011;61816;53.582;10.096;2024-01-30T01:55:33;22.05;;;9.88;;
73550;SDS011;61816;53.582;10.096;2024-01-30T01:58:00;15.93;;;8.63;;
73550;SDS011;61816;53.582;10.096;2024-01-30T02:00:29;18.08;;;9.07;;
73550;SDS011;61816;53.582;10.096;2024-01-30T02:02:58;14.80;;;9.10;;
73550;SDS011;61816;53.582;10.096;2024-01-30T02:05:24;20.48;;;8.82;;
73550;SDS011;61816;53.582;10.096;2024-01-30T02:07:50;20.05;;;8.50;;
73550;SDS011;61816;53.582;10.096;2024-01-30T02:10:15;18.20;;;8.73;;
73550;SDS011;61816;53.582;10.096;2024-01-30T02:12:40;17.95;;;8.95;;
73550;SDS011;61816;53.582;10.096;2024-01-30T02:15:06;18.23;;;9.52;;
73550;SDS011;61816;53.582;10.096;2024-01-30T02:17:32;16.45;;;9.23;;
73550;SDS011;61816;53.582;10.096;2024-01-30T02:19:58;24.30;;;8.45;;
73550;SDS011;61816;53.582;10.096;2024-01-30T02:22:24;14.40;;;8.90;;
73550;SDS011;61816;53.582;10.096;2024-01-30T02:24:49;15.27;;;8.27;;
73550;SDS011;61816;53.582;10.096;2024-01-30T02:27:15;17.75;;;9.82;;
73550;SDS011;61816;53.582;10.096;2024-01-30T02:29:40;17.23;;;9.27;;
73550;SDS011;61816;53.582;10.096;2024-01-30T02:32:05;23.70;;;9.98;;
73550;SDS011;61816;53.582;10.096;2024-01-30T02:34:31;14.60;;;9.23;;
73550;SDS011;61816;53.582;10.096;2024-01-30T02:36:56;15.93;;;9.23;;
73550;SDS011;61816;53.582;10.096;2024-01-30T02:39:22;18.23;;;9.77;;
73550;SDS011;61816;53.582;10.096;2024-01-30T02:41:47;20.10;;;8.88;;
73550;SDS011;61816;53.582;10.096;2024-01-30T02:44:12;22.67;;;9.30;;
73550;SDS011;61816;53.582;10.096;2024-01-30T02:46:38;16.52;;;8.93;;
73550;SDS011;61816;53.582;10.096;2024-01-30T02:49:03;18.45;;;10.27;;
73550;SDS011;61816;53.582;10.096;2024-01-30T02:51:31;19.65;;;10.02;;
73550;SDS011;61816;53.582;10.096;2024-01-30T02:53:56;18.73;;;9.95;;
73550;SDS011;61816;53.582;10.096;2024-01-30T02:56:22;18.05;;;9.98;;
73550;SDS011;61816;53.582;10.096;2024-01-30T02:58:47;22.38;;;10.85;;
73550;SDS011;61816;53.582;10.096;2024-01-30T03:01:12;18.65;;;9.45;;
73550;SDS011;61816;53.582;10.096;2024-01-30T03:03:38;16.65;;;8.95;;
73550;SDS011;61816;53.582;10.096;2024-01-30T03:06:05;18.48;;;10.15;;
73550;SDS011;61816;53.582;10.096;2024-01-30T03:08:30;29.77;;;9.98;;
73550;SDS011;61816;53.582;10.096;2024-01-30T03:10:56;19.58;;;10.35;;
73550;SDS011;61816;53.582;10.096;2024-01-30T03:13:21;19.75;;;10.20;;
73550;SDS011;61816;53.582;10.096;2024-01-30T03:15:48;18.25;;;10.02;;
73550;SDS011;61816;53.582;10.096;2024-01-30T03:18:13;16.40;;;9.52;;
73550;SDS011;61816;53.582;10.096;2024-01-30T03:20:39;17.92;;;10.27;;
73550;SDS011;61816;53.582;10.096;2024-01-30T03:23:04;17.92;;;10.32;;
73550;SDS011;61816;53.582;10.096;2024-01-30T03:25:29;18.75;;;11.00;;
73550;SDS011;61816;53.582;10.096;2024-01-30T03:27:55;20.05;;;11.15;;
73550;SDS011;61816;53.582;10.096;2024-01-30T03:30:20;22.13;;;10.98;;
73550;SDS011;61816;53.582;10.096;2024-01-30T03:32:45;18.27;;;10.25;;
73550;SDS011;61816;53.582;10.096;2024-01-30T03:35:11;16.95;;;10.38;;
73550;SDS011;61816;53.582;10.096;2024-01-30T03:37:36;21.42;;;11.02;;
73550;SDS011;61816;53.582;10.096;2024-01-30T03:40:02;18.52;;;10.32;;
73550;SDS011;61816;53.582;10.096;2024-01-30T03:42:28;21.67;;;10.65;;
73550;SDS011;61816;53.582;10.096;2024-01-30T03:44:53;20.90;;;10.45;;
73550;SDS011;61816;53.582;10.096;2024-01-30T03:47:20;26.13;;;10.93;;
73550;SDS011;61816;53.582;10.096;2024-01-30T03:49:46;23.23;;;11.00;;
73550;SDS011;61816;53.582;10.096;2024-01-30T03:52:11;18.95;;;10.70;;
73550;SDS011;61816;53.582;10.096;2024-01-30T03:54:37;21.88;;;10.48;;
73550;SDS011;61816;53.582;10.096;2024-01-30T03:57:02;20.00;;;10.75;;
73550;SDS011;61816;53.582;10.096;2024-01-30T03:59:28;22.17;;;11.70;;
73550;SDS011;61816;53.582;10.096;2024-01-30T04:01:54;27.88;;;12.20;;
73550;SDS011;61816;53.582;10.096;2024-01-30T04:04:19;26.35;;;11.98;;
73550;SDS011;61816;53.582;10.096;2024-01-30T04:06:45;22.35;;;12.48;;
73550;SDS011;61816;53.582;10.096;2024-01-30T04:09:11;20.38;;;11.30;;
73550;SDS011;61816;53.582;10.096;2024-01-30T04:11:38;24.38;;;12.20;;
73550;SDS011;61816;53.582;10.096;2024-01-30T04:14:03;19.92;;;12.10;;
73550;SDS011;61816;53.582;10.096;2024-01-30T04:16:29;19.52;;;11.05;;
73550;SDS011;61816;53.582;10.096;2024-01-30T04:18:54;26.15;;;12.15;;
73550;SDS011;61816;53.582;10.096;2024-01-30T04:21:22;23.77;;;13.05;;
73550;SDS011;61816;53.582;10.096;2024-01-30T04:23:48;20.98;;;12.27;;
73550;SDS011;61816;53.582;10.096;2024-01-30T04:26:14;23.95;;;12.77;;
73550;SDS011;61816;53.582;10.096;2024-01-30T04:28:44;21.20;;;10.65;;
73550;SDS011;61816;53.582;10.096;2024-01-30T04:31:10;30.33;;;11.07;;
73550;SDS011;61816;53.582;10.096;2024-01-30T04:33:35;24.20;;;12.75;;
73550;SDS011;61816;53.582;10.096;2024-01-30T04:36:01;29.10;;;12.85;;
73550;SDS011;61816;53.582;10.096;2024-01-30T04:38:26;22.92;;;12.27;;
73550;SDS011;61816;53.582;10.096;2024-01-30T04:40:51;22.63;;;12.30;;
73550;SDS011;61816;53.582;10.096;2024-01-30T04:43:17;23.40;;;12.30;;
73550;SDS011;61816;53.582;10.096;2024-01-30T04:45:44;19.13;;;12.18;;
73550;SDS011;61816;53.582;10.096;2024-01-30T04:48:09;26.10;;;12.90;;
73550;SDS011;61816;53.582;10.096;2024-01-30T04:50:34;28.15;;;14.05;;
73550;SDS011;61816;53.582;10.096;2024-01-30T04:53:00;28.67;;;12.57;;
73550;SDS011;61816;53.582;10.096;2024-01-30T04:55:25;24.77;;;13.57;;
73550;SDS011;61816;53.582;10.096;2024-01-30T04:57:50;31.90;;;13.38;;
73550;SDS011;61816;53.582;10.096;2024-01-30T05:00:16;24.38;;;13.07;;
73550;SDS011;61816;53.582;10.096;2024-01-30T05:02:41;26.50;;;13.05;;
73550;SDS011;61816;53.582;10.096;2024-01-30T05:05:06;21.58;;;13.75;;
73550;SDS011;61816;53.582;10.096;2024-01-30T05:07:36;27.20;;;14.15;;
73550;SDS011;61816;53.582;10.096;2024-01-30T05:10:01;27.52;;;13.95;;
73550;SDS011;61816;53.582;10.096;2024-01-30T05:12:27;27.88;;;14.70;;
73550;SDS011;61816;53.582;10.096;2024-01-30T05:14:52;24.15;;;13.57;;
73550;SDS011;61816;53.582;10.096;2024-01-30T05:17:18;25.55;;;14.48;;
73550;SDS011;61816;53.582;10.096;2024-01-30T05:19:43;32.92;;;14.63;;
73550;SDS011;61816;53.582;10.096;2024-01-30T05:22:08;30.23;;;14.95;;
73550;SDS011;61816;53.582;10.096;2024-01-30T05:24:34;31.00;;;15.82;;
73550;SDS011;61816;53.582;10.096;2024-01-30T05:26:59;26.80;;;15.15;;
73550;SDS011;61816;53.582;10.096;2024-01-30T05:29:25;32.42;;;15.68;;
73550;SDS011;61816;53.582;10.096;2024-01-30T05:31:50;31.02;;;15.52;;
73550;SDS011;61816;53.582;10.096;2024-01-30T05:34:16;28.40;;;15.02;;
73550;SDS011;61816;53.582;10.096;2024-01-30T05:36:44;29.02;;;15.35;;
73550;SDS011;61816;53.582;10.096;2024-01-30T05:39:12;29.67;;;15.40;;
73550;SDS011;61816;53.582;10.096;2024-01-30T05:41:38;30.20;;;14.88;;
73550;SDS011;61816;53.582;10.096;2024-01-30T05:44:03;26.60;;;15.77;;
73550;SDS011;61816;53.582;10.096;2024-01-30T05:46:29;26.15;;;15.27;;
73550;SDS011;61816;53.582;10.096;2024-01-30T05:48:54;31.42;;;15.23;;
73550;SDS011;61816;53.582;10.096;2024-01-30T05:51:20;27.98;;;15.27;;
73550;SDS011;61816;53.582;10.096;2024-01-30T05:53:45;27.58;;;15.40;;
73550;SDS011;61816;53.582;10.096;2024-01-30T05:56:10;31.80;;;15.55;;
73550;SDS011;61816;53.582;10.096;2024-01-30T05:58:35;31.80;;;15.75;;
73550;SDS011;61816;53.582;10.096;2024-01-30T06:01:02;28.75;;;14.93;;
73550;SDS011;61816;53.582;10.096;2024-01-30T06:03:31;35.00;;;16.75;;
73550;SDS011;61816;53.582;10.096;2024-01-30T06:06:00;27.75;;;15.57;;
73550;SDS011;61816;53.582;10.096;2024-01-30T06:08:25;36.55;;;16.70;;
73550;SDS011;61816;53.582;10.096;2024-01-30T06:10:50;29.92;;;16.25;;
73550;SDS011;61816;53.582;10.096;2024-01-30T06:13:16;28.15;;;17.02;;
73550;SDS011;61816;53.582;10.096;2024-01-30T06:15:41;27.60;;;16.20;;
73550;SDS011;61816;53.582;10.096;2024-01-30T06:18:06;29.05;;;16.05;;
73550;SDS011;61816;53.582;10.096;2024-01-30T06:20:32;27.83;;;16.00;;
73550;SDS011;61816;53.582;10.096;2024-01-30T06:22:57;37.33;;;16.75;;
73550;SDS011;61816;53.582;10.096;2024-01-30T06:25:22;28.08;;;15.98;;
73550;SDS011;61816;53.582;10.096;2024-01-30T06:27:48;28.95;;;16.40;;
73550;SDS011;61816;53.582;10.096;2024-01-30T06:30:14;23.75;;;15.90;;
73550;SDS011;61816;53.582;10.096;2024-01-30T06:32:39;29.00;;;17.00;;
73550;SDS011;61816;53.582;10.096;2024-01-30T06:35:05;33.47;;;16.48;;
73550;SDS011;61816;53.582;10.096;2024-01-30T06:37:30;33.95;;;19.10;;
73550;SDS011;61816;53.582;10.096;2024-01-30T06:39:56;33.05;;;16.90;;
73550;SDS011;61816;53.582;10.096;2024-01-30T06:42:21;32.40;;;16.70;;
73550;SDS011;61816;53.582;10.096;2024-01-30T06:44:46;30.25;;;16.20;;
73550;SDS011;61816;53.582;10.096;2024-01-30T06:47:12;35.30;;;17.58;;
73550;SDS011;61816;53.582;10.096;2024-01-30T06:49:38;33.35;;;17.23;;
73550;SDS011;61816;53.582;10.096;2024-01-30T06:52:06;30.90;;;16.27;;
73550;SDS011;61816;53.582;10.096;2024-01-30T06:54:32;28.70;;;17.13;;
73550;SDS011;61816;53.582;10.096;2024-01-30T06:56:58;36.42;;;17.92;;
73550;SDS011;61816;53.582;10.096;2024-01-30T06:59:24;33.25;;;17.40;;
73550;SDS011;61816;53.582;10.096;2024-01-30T07:01:49;33.85;;;18.98;;
73550;SDS011;61816;53.582;10.096;2024-01-30T07:04:15;26.48;;;16.52;;
73550;SDS011;61816;53.582;10.096;2024-01-30T07:06:41;27.95;;;16.35;;
73550;SDS011;61816;53.582;10.096;2024-01-30T07:09:06;32.42;;;17.30;;
73550;SDS011;61816;53.582;10.096;2024-01-30T07:11:31;31.70;;;17.65;;
73550;SDS011;61816;53.582;10.096;2024-01-30T07:13:57;30.65;;;18.55;;
73550;SDS011;61816;53.582;10.096;2024-01-30T07:16:22;29.08;;;16.42;;
73550;SDS011;61816;53.582;10.096;2024-01-30T07:18:48;30.30;;;18.45;;
73550;SDS011;61816;53.582;10.096;2024-01-30T07:21:14;32.88;;;18.27;;
73550;SDS011;61816;53.582;10.096;2024-01-30T07:23:40;33.72;;;18.27;;
73550;SDS011;61816;53.582;10.096;2024-01-30T07:26:06;27.50;;;17.33;;
73550;SDS011;61816;53.582;10.096;2024-01-30T07:28:31;37.53;;;18.45;;
73550;SDS011;61816;53.582;10.096;2024-01-30T07:30:57;37.05;;;18.63;;
73550;SDS011;61816;53.582;10.096;2024-01-30T07:33:22;35.70;;;19.00;;
73550;SDS011;61816;53.582;10.096;2024-01-30T07:35:49;35.20;;;19.42;;
73550;SDS011;61816;53.582;10.096;2024-01-30T07:38:17;36.05;;;18.75;;
73550;SDS011;61816;53.582;10.096;2024-01-30T07:40:42;34.13;;;18.27;;
73550;SDS011;61816;53.582;10.096;2024-01-30T07:43:07;40.05;;;19.42;;
73550;SDS011;61816;53.582;10.096;2024-01-30T07:45:33;36.50;;;19.38;;
73550;SDS011;61816;53.582;10.096;2024-01-30T07:47:58;37.38;;;18.98;;
73550;SDS011;61816;53.582;10.096;2024-01-30T07:50:25;37.47;;;19.25;;
73550;SDS011;61816;53.582;10.096;2024-01-30T07:52:50;35.70;;;19.95;;
73550;SDS011;61816;53.582;10.096;2024-01-30T07:55:19;35.70;;;19.20;;
73550;SDS011;61816;53.582;10.096;2024-01-30T07:57:45;39.00;;;19.05;;
73550;SDS011;61816;53.582;10.096;2024-01-30T08:00:11;32.88;;;19.10;;
73550;SDS011;61816;53.582;10.096;2024-01-30T08:02:37;33.97;;;18.73;;
73550;SDS011;61816;53.582;10.096;2024-01-30T08:05:02;37.17;;;19.10;;
73550;SDS011;61816;53.582;10.096;2024-01-30T08:07:27;38.35;;;19.63;;
73550;SDS011;61816;53.582;10.096;2024-01-30T08:09:54;36.60;;;19.00;;
73550;SDS011;61816;53.582;10.096;2024-01-30T08:12:20;34.55;;;18.70;;
73550;SDS011;61816;53.582;10.096;2024-01-30T08:14:45;32.17;;;18.45;;
73550;SDS011;61816;53.582;10.096;2024-01-30T08:17:11;37.80;;;18.20;;
73550;SDS011;61816;53.582;10.096;2024-01-30T08:19:36;35.50;;;19.50;;
73550;SDS011;61816;53.582;10.096;2024-01-30T08:22:01;34.92;;;18.90;;
73550;SDS011;61816;53.582;10.096;2024-01-30T08:24:26;35.38;;;19.48;;
73550;SDS011;61816;53.582;10.096;2024-01-30T08:26:52;39.78;;;20.00;;
73550;SDS011;61816;53.582;10.096;2024-01-30T08:29:17;40.22;;;20.98;;
73550;SDS011;61816;53.582;10.096;2024-01-30T08:31:42;37.47;;;20.52;;
73550;SDS011;61816;53.582;10.096;2024-01-30T08:34:09;35.13;;;18.50;;
73550;SDS011;61816;53.582;10.096;2024-01-30T08:36:34;31.27;;;18.90;;
73550;SDS011;61816;53.582;10.096;2024-01-30T08:39:00;36.53;;;19.88;;
73550;SDS011;61816;53.582;10.096;2024-01-30T08:41:25;35.42;;;20.48;;
73550;SDS011;61816;53.582;10.096;2024-01-30T08:43:51;50.30;;;20.88;;
73550;SDS011;61816;53.582;10.096;2024-01-30T08:46:18;31.60;;;18.70;;
73550;SDS011;61816;53.582;10.096;2024-01-30T08:48:43;34.90;;;19.30;;
73550;SDS011;61816;53.582;10.096;2024-01-30T08:51:09;43.30;;;19.10;;
73550;SDS011;61816;53.582;10.096;2024-01-30T08:53:34;37.65;;;19.40;;
73550;SDS011;61816;53.582;10.096;2024-01-30T08:56:01;33.30;;;18.88;;
73550;SDS011;61816;53.582;10.096;2024-01-30T08:58:27;29.58;;;18.30;;
73550;SDS011;61816;53.582;10.096;2024-01-30T09:00:52;35.92;;;19.17;;
73550;SDS011;61816;53.582;10.096;2024-01-30T09:03:18;31.67;;;19.05;;
73550;SDS011;61816;53.582;10.096;2024-01-30T09:05:43;37.65;;;17.70;;
73550;SDS011;61816;53.582;10.096;2024-01-30T09:08:08;38.80;;;19.70;;
73550;SDS011;61816;53.582;10.096;2024-01-30T09:10:35;42.42;;;19.20;;
73550;SDS011;61816;53.582;10.096;2024-01-30T09:13:00;38.45;;;19.33;;
73550;SDS011;61816;53.582;10.096;2024-01-30T09:15:26;29.40;;;18.25;;
73550;SDS011;61816;53.582;10.096;2024-01-30T09:17:51;31.85;;;18.45;;
73550;SDS011;61816;53.582;10.096;2024-01-30T09:20:16;33.15;;;18.90;;
73550;SDS011;61816;53.582;10.096;2024-01-30T09:22:42;31.98;;;18.48;;
73550;SDS011;61816;53.582;10.096;2024-01-30T09:25:07;34.50;;;17.38;;
73550;SDS011;61816;53.582;10.096;2024-01-30T09:27:32;33.13;;;17.30;;
73550;SDS011;61816;53.582;10.096;2024-01-30T09:29:58;37.88;;;17.40;;
73550;SDS011;61816;53.582;10.096;2024-01-30T09:32:23;30.65;;;15.57;;
73550;SDS011;61816;53.582;10.096;2024-01-30T09:34:48;34.40;;;16.85;;
73550;SDS011;61816;53.582;10.096;2024-01-30T09:37:14;27.35;;;16.50;;
73550;SDS011;61816;53.582;10.096;2024-01-30T09:39:40;29.55;;;16.75;;
73550;SDS011;61816;53.582;10.096;2024-01-30T09:44:58;32.85;;;17.55;;
73550;SDS011;61816;53.582;10.096;2024-01-30T09:47:23;43.75;;;17.45;;
73550;SDS011;61816;53.582;10.096;2024-01-30T09:49:49;39.08;;;17.15;;
73550;SDS011;61816;53.582;10.096;2024-01-30T09:52:16;39.50;;;16.98;;
73550;SDS011;61816;53.582;10.096;2024-01-30T09:54:41;35.63;;;16.75;;
73550;SDS011;61816;53.582;10.096;2024-01-30T09:57:08;33.28;;;17.23;;
73550;SDS011;61816;53.582;10.096;2024-01-30T09:59:34;35.33;;;17.40;;
73550;SDS011;61816;53.582;10.096;2024-01-30T10:01:59;32.45;;;16.85;;
73550;SDS011;61816;53.582;10.096;2024-01-30T10:04:25;32.80;;;17.25;;
73550;SDS011;61816;53.582;10.096;2024-01-30T10:06:50;34.00;;;16.85;;
73550;SDS011;61816;53.582;10.096;2024-01-30T10:09:16;30.70;;;18.02;;
73550;SDS011;61816;53.582;10.096;2024-01-30T10:11:41;37.15;;;17.35;;
73550;SDS011;61816;53.582;10.096;2024-01-30T10:14:06;35.90;;;16.80;;
73550;SDS011;61816;53.582;10.096;2024-01-30T10:16:32;31.55;;;16.23;;
73550;SDS011;61816;53.582;10.096;2024-01-30T10:18:59;36.22;;;16.55;;
73550;SDS011;61816;53.582;10.096;2024-01-30T10:21:24;28.58;;;16.77;;
73550;SDS011;61816;53.582;10.096;2024-01-30T10:23:50;35.50;;;16.85;;
73550;SDS011;61816;53.582;10.096;2024-01-30T10:26:18;29.70;;;14.93;;
73550;SDS011;61816;53.582;10.096;2024-01-30T10:28:44;31.17;;;15.70;;
73550;SDS011;61816;53.582;10.096;2024-01-30T10:31:10;34.97;;;15.48;;
73550;SDS011;61816;53.582;10.096;2024-01-30T10:33:35;26.42;;;14.68;;
73550;SDS011;61816;53.582;10.096;2024-01-30T10:36:01;30.95;;;15.05;;
73550;SDS011;61816;53.582;10.096;2024-01-30T10:38:28;27.25;;;15.70;;
73550;SDS011;61816;53.582;10.096;2024-01-30T10:40:58;30.55;;;14.93;;
73550;SDS011;61816;53.582;10.096;2024-01-30T10:43:31;28.85;;;15.27;;
73550;SDS011;61816;53.582;10.096;2024-01-30T10:46:05;23.33;;;14.32;;
73550;SDS011;61816;53.582;10.096;2024-01-30T10:48:37;26.58;;;15.75;;
73550;SDS011;61816;53.582;10.096;2024-01-30T10:51:08;29.10;;;15.60;;
73550;SDS011;61816;53.582;10.096;2024-01-30T10:53:34;28.38;;;15.68;;
73550;SDS011;61816;53.582;10.096;2024-01-30T10:56:01;33.85;;;14.25;;
73550;SDS011;61816;53.582;10.096;2024-01-30T10:58:28;24.80;;;14.80;;
73550;SDS011;61816;53.582;10.096;2024-01-30T11:00:54;24.42;;;15.55;;
73550;SDS011;61816;53.582;10.096;2024-01-30T11:03:20;28.98;;;14.02;;
73550;SDS011;61816;53.582;10.096;2024-01-30T11:05:49;31.38;;;14.60;;
73550;SDS011;61816;53.582;10.096;2024-01-30T11:08:22;29.08;;;15.45;;
73550;SDS011;61816;53.582;10.096;2024-01-30T11:10:54;33.25;;;14.60;;
73550;SDS011;61816;53.582;10.096;2024-01-30T11:13:20;30.27;;;15.98;;
73550;SDS011;61816;53.582;10.096;2024-01-30T11:15:47;22.40;;;14.75;;
73550;SDS011;61816;53.582;10.096;2024-01-30T11:18:22;25.23;;;14.18;;
73550;SDS011;61816;53.582;10.096;2024-01-30T11:20:48;32.42;;;14.63;;
73550;SDS011;61816;53.582;10.096;2024-01-30T11:28:22;29.63;;;14.07;;
73550;SDS011;61816;53.582;10.096;2024-01-30T11:30:48;31.05;;;13.52;;
73550;SDS011;61816;53.582;10.096;2024-01-30T11:33:26;27.08;;;13.80;;
73550;SDS011;61816;53.582;10.096;2024-01-30T11:35:57;22.10;;;13.45;;
73550;SDS011;61816;53.582;10.096;2024-01-30T11:38:29;28.42;;;14.02;;
73550;SDS011;61816;53.582;10.096;2024-01-30T11:40:55;28.30;;;13.30;;
73550;SDS011;61816;53.582;10.096;2024-01-30T11:43:24;29.77;;;13.85;;
73550;SDS011;61816;53.582;10.096;2024-01-30T11:45:50;29.67;;;12.93;;
73550;SDS011;61816;53.582;10.096;2024-01-30T11:48:17;31.75;;;14.52;;
73550;SDS011;61816;53.582;10.096;2024-01-30T11:50:43;32.10;;;14.30;;
73550;SDS011;61816;53.582;10.096;2024-01-30T11:53:12;31.00;;;14.68;;
73550;SDS011;61816;53.582;10.096;2024-01-30T11:55:38;29.92;;;14.73;;
73550;SDS011;61816;53.582;10.096;2024-01-30T11:58:05;26.98;;;13.18;;
73550;SDS011;61816;53.582;10.096;2024-01-30T12:00:31;28.33;;;15.00;;
73550;SDS011;61816;53.582;10.096;2024-01-30T12:02:58;27.60;;;14.85;;
73550;SDS011;61816;53.582;10.096;2024-01-30T12:05:26;24.75;;;13.68;;
73550;SDS011;61816;53.582;10.096;2024-01-30T12:07:52;28.35;;;14.48;;
73550;SDS011;61816;53.582;10.096;2024-01-30T12:10:18;28.88;;;14.52;;
73550;SDS011;61816;53.582;10.096;2024-01-30T12:12:51;24.20;;;13.50;;
73550;SDS011;61816;53.582;10.096;2024-01-30T12:15:20;30.20;;;14.10;;
73550;SDS011;61816;53.582;10.096;2024-01-30T12:17:50;23.98;;;14.80;;
73550;SDS011;61816;53.582;10.096;2024-01-30T12:20:19;25.40;;;14.00;;
73550;SDS011;61816;53.582;10.096;2024-01-30T12:22:47;24.70;;;13.25;;
73550;SDS011;61816;53.582;10.096;2024-01-30T12:25:18;27.30;;;14.57;;
73550;SDS011;61816;53.582;10.096;2024-01-30T12:27:46;27.58;;;13.88;;
73550;SDS011;61816;53.582;10.096;2024-01-30T12:30:19;24.35;;;13.02;;
73550;SDS011;61816;53.582;10.096;2024-01-30T12:32:46;25.30;;;14.05;;
73550;SDS011;61816;53.582;10.096;2024-01-30T12:35:17;27.98;;;14.98;;
73550;SDS011;61816;53.582;10.096;2024-01-30T12:37:49;24.67;;;14.02;;
73550;SDS011;61816;53.582;10.096;2024-01-30T12:40:16;28.27;;;13.75;;
73550;SDS011;61816;53.582;10.096;2024-01-30T12:42:43;30.77;;;14.63;;
73550;SDS011;61816;53.582;10.096;2024-01-30T12:45:14;25.52;;;13.73;;
73550;SDS011;61816;53.582;10.096;2024-01-30T12:47:40;29.73;;;14.40;;
73550;SDS011;61816;53.582;10.096;2024-01-30T12:50:07;27.70;;;13.88;;
73550;SDS011;61816;53.582;10.096;2024-01-30T12:52:35;29.85;;;14.38;;
73550;SDS011;61816;53.582;10.096;2024-01-30T12:55:01;26.75;;;13.55;;
73550;SDS011;61816;53.582;10.096;2024-01-30T12:57:29;37.03;;;14.32;;
73550;SDS011;61816;53.582;10.096;2024-01-30T13:00:20;32.70;;;14.07;;
73550;SDS011;61816;53.582;10.096;2024-01-30T13:03:05;26.73;;;13.95;;
73550;SDS011;61816;53.582;10.096;2024-01-30T13:05:31;32.38;;;15.25;;
73550;SDS011;61816;53.582;10.096;2024-01-30T13:08:02;27.67;;;13.38;;
73550;SDS011;61816;53.582;10.096;2024-01-30T13:10:28;31.65;;;13.90;;
73550;SDS011;61816;53.582;10.096;2024-01-30T13:12:54;31.83;;;13.50;;
73550;SDS011;61816;53.582;10.096;2024-01-30T13:15:20;28.80;;;14.15;;
73550;SDS011;61816;53.582;10.096;2024-01-30T13:17:48;25.42;;;12.80;;
73550;SDS011;61816;53.582;10.096;2024-01-30T13:20:15;32.10;;;12.80;;
73550;SDS011;61816;53.582;10.096;2024-01-30T13:22:44;28.17;;;12.82;;
73550;SDS011;61816;53.582;10.096;2024-01-30T13:25:10;23.42;;;12.35;;
73550;SDS011;61816;53.582;10.096;2024-01-30T13:27:38;27.55;;;11.93;;
73550;SDS011;61816;53.582;10.096;2024-01-30T13:30:06;26.20;;;12.38;;
73550;SDS011;61816;53.582;10.096;2024-01-30T13:32:34;28.92;;;12.45;;
73550;SDS011;61816;53.582;10.096;2024-01-30T13:35:03;22.10;;;11.40;;
73550;SDS011;61816;53.582;10.096;2024-01-30T13:37:30;28.83;;;11.70;;
73550;SDS011;61816;53.582;10.096;2024-01-30T13:45:05;27.98;;;13.23;;
73550;SDS011;61816;53.582;10.096;2024-01-30T14:11:36;31.10;;;11.98;;
73550;SDS011;61816;53.582;10.096;2024-01-30T14:14:05;23.70;;;11.00;;
73550;SDS011;61816;53.582;10.096;2024-01-30T14:16:32;24.20;;;11.70;;
73550;SDS011;61816;53.582;10.096;2024-01-30T14:19:00;28.48;;;12.10;;
73550;SDS011;61816;53.582;10.096;2024-01-30T14:21:26;29.17;;;12.27;;
73550;SDS011;61816;53.582;10.096;2024-01-30T14:36:00;35.08;;;12.77;;
73550;SDS011;61816;53.582;10.096;2024-01-30T14:38:28;28.85;;;12.48;;
73550;SDS011;61816;53.582;10.096;2024-01-30T14:40:54;28.35;;;12.35;;
73550;SDS011;61816;53.582;10.096;2024-01-30T14:43:34;32.75;;;13.25;;
73550;SDS011;61816;53.582;10.096;2024-01-30T14:46:05;31.70;;;12.90;;
73550;SDS011;61816;53.582;10.096;2024-01-30T14:58:45;30.20;;;11.93;;
73550;SDS011;61816;53.582;10.096;2024-01-30T15:01:13;27.60;;;10.98;;
73550;SDS011;61816;53.582;10.096;2024-01-30T15:04:04;25.42;;;11.65;;
73550;SDS011;61816;53.582;10.096;2024-01-30T15:16:24;35.40;;;12.55;;